Time;durP1;ratioP1;P1;durP2;ratioP2;P2;SDS_P1;SDS_P2;PMS_P1;PMS_P2;Temp;Humidity;BMP_temperature;BMP_pressure;BME280_temperature;BME280_humidity;BME280_pressure;Samples;Min_cycle;Max_cycle;Signal;HPM_P1;HPM_P2
2022/03/22 00:00:46;;;;;;;2.50;1.67;;;20.80;44.70;;;;;;5090940;28;20184;-69
2022/03/22 00:03:14;;;;;;;2.97;1.70;;;20.80;44.70;;;;;;5091437;28;20978;-69
2022/03/22 00:05:42;;;;;;;2.70;1.40;;;20.80;45.20;;;;;;5091479;28;20405;-67
2022/03/22 00:08:09;;;;;;;2.30;1.30;;;20.80;45.10;;;;;;5091412;28;20537;-68
2022/03/22 00:10:36;;;;;;;2.20;1.47;;;20.80;45.00;;;;;;5091171;28;20495;-68
2022/03/22 00:13:05;;;;;;;2.80;1.83;;;20.80;45.00;;;;;;5091383;28;20406;-67
2022/03/22 00:15:34;;;;;;;2.83;1.40;;;20.80;45.00;;;;;;5091445;28;20497;-67
2022/03/22 00:18:00;;;;;;;4.43;1.50;;;20.80;45.10;;;;;;5091432;28;20431;-68
2022/03/22 00:20:27;;;;;;;2.50;1.50;;;20.80;45.30;;;;;;5090949;28;20488;-67
2022/03/22 00:22:53;;;;;;;3.00;1.90;;;20.80;45.30;;;;;;5091301;28;20175;-67
2022/03/22 00:25:19;;;;;;;2.30;1.70;;;20.80;45.30;;;;;;5091769;28;20410;-67
2022/03/22 00:27:55;;;;;;;2.20;1.40;;;20.80;45.40;;;;;;5094877;28;20421;-68
2022/03/22 00:30:22;;;;;;;3.30;1.77;;;20.70;45.30;;;;;;5094395;28;20239;-68
2022/03/22 00:32:52;;;;;;;2.37;1.57;;;20.80;45.40;;;;;;5095014;28;20923;-68
2022/03/22 00:35:18;;;;;;;2.80;1.87;;;20.80;45.60;;;;;;5094690;28;20501;-68
2022/03/22 00:37:46;;;;;;;2.17;1.40;;;20.70;45.40;;;;;;5094749;28;20466;-68
2022/03/22 00:40:15;;;;;;;2.77;1.50;;;20.70;45.60;;;;;;5094300;28;20418;-68
2022/03/22 00:42:41;;;;;;;2.53;1.50;;;20.70;45.60;;;;;;5094643;28;20422;-68
2022/03/22 00:45:07;;;;;;;3.00;1.67;;;20.70;45.60;;;;;;5094722;28;20402;-67
2022/03/22 00:47:33;;;;;;;2.60;1.70;;;20.70;45.80;;;;;;5094826;28;20629;-68
2022/03/22 00:50:00;;;;;;;2.10;1.30;;;20.70;45.80;;;;;;5093929;28;20980;-68
2022/03/22 00:52:26;;;;;;;2.60;1.77;;;20.70;46.40;;;;;;5094405;28;20652;-68
2022/03/22 00:54:52;;;;;;;5.10;1.60;;;20.70;45.80;;;;;;5094576;28;20425;-68
2022/03/22 00:57:18;;;;;;;2.40;1.30;;;20.70;45.80;;;;;;5094515;28;20410;-68
2022/03/22 01:00:02;;;;;;;2.03;1.20;;;20.70;45.80;;;;;;5094143;28;20612;-68
2022/03/22 01:02:28;;;;;;;3.77;1.67;;;20.70;45.80;;;;;;5094300;28;20788;-68
2022/03/22 01:04:56;;;;;;;2.90;1.77;;;20.70;45.90;;;;;;5094527;28;20410;-68
2022/03/22 01:07:21;;;;;;;2.63;1.47;;;20.70;45.80;;;;;;5094187;28;20906;-68
2022/03/22 01:09:47;;;;;;;4.27;1.57;;;20.70;46.00;;;;;;5093701;28;20491;-67
2022/03/22 01:12:12;;;;;;;3.53;1.97;;;20.70;46.90;;;;;;5094229;28;20195;-69
2022/03/22 01:14:39;;;;;;;2.33;1.30;;;20.70;46.80;;;;;;5094142;28;20168;-68
2022/03/22 01:17:06;;;;;;;2.63;1.60;;;20.70;47.10;;;;;;5094065;28;20171;-68
2022/03/22 01:19:32;;;;;;;14.03;1.40;;;20.70;47.00;;;;;;5093444;28;20422;-69
2022/03/22 01:21:59;;;;;;;6.17;1.33;;;20.70;47.30;;;;;;5093865;28;20534;-69
2022/03/22 01:24:25;;;;;;;7.23;2.03;;;20.70;47.20;;;;;;5093968;28;20414;-69
2022/03/22 01:26:51;;;;;;;26.47;1.97;;;20.70;44.90;;;;;;5093901;28;20449;-69
2022/03/22 01:29:17;;;;;;;6.50;1.63;;;20.70;44.70;;;;;;5093202;28;20500;-69
2022/03/22 01:31:44;;;;;;;10.13;2.17;;;20.60;44.30;;;;;;5093717;28;20258;-68
2022/03/22 01:34:10;;;;;;;3.90;1.87;;;20.60;44.20;;;;;;5093748;28;20172;-70
2022/03/22 01:36:36;;;;;;;3.27;2.00;;;20.60;44.10;;;;;;5093030;28;20402;-70
2022/03/22 01:39:02;;;;;;;10.10;2.77;;;20.50;43.90;;;;;;5092699;28;20418;-70
2022/03/22 01:41:28;;;;;;;4.73;2.67;;;20.50;44.20;;;;;;5094923;28;20200;-69
2022/03/22 01:43:54;;;;;;;5.30;2.70;;;20.50;43.50;;;;;;5093612;28;20810;-69
2022/03/22 01:46:25;;;;;;;7.63;2.77;;;20.50;43.50;;;;;;5093413;28;20179;-68
2022/03/22 01:48:52;;;;;;;6.40;2.40;;;20.40;43.40;;;;;;5093143;28;20207;-69
2022/03/22 01:51:21;;;;;;;4.30;2.10;;;20.40;43.50;;;;;;5093093;28;20438;-69
2022/03/22 01:53:47;;;;;;;2.90;2.20;;;20.40;43.60;;;;;;5093108;28;20445;-69
2022/03/22 01:56:13;;;;;;;8.37;2.77;;;20.40;43.30;;;;;;5093105;28;20417;-69
2022/03/22 01:58:40;;;;;;;4.93;2.77;;;20.40;43.20;;;;;;5092808;28;20425;-69
2022/03/22 02:06:35;;;;;;;4.60;2.83;;;20.30;43.00;;;;;;5094596;28;20931;-69
2022/03/22 02:09:02;;;;;;;5.30;3.33;;;20.30;42.90;;;;;;5092382;28;20506;-69
2022/03/22 02:11:28;;;;;;;7.80;3.37;;;20.30;43.00;;;;;;5094074;28;20906;-69
2022/03/22 02:13:54;;;;;;;5.50;3.00;;;20.30;42.80;;;;;;5093014;28;20483;-68
2022/03/22 02:16:21;;;;;;;4.27;2.60;;;20.30;43.00;;;;;;5092787;28;20413;-68
2022/03/22 02:18:47;;;;;;;5.83;2.93;;;20.20;42.70;;;;;;5092421;28;20424;-68
2022/03/22 02:21:15;;;;;;;5.70;3.20;;;20.20;43.00;;;;;;5092817;28;20421;-68
2022/03/22 02:23:44;;;;;;;4.90;3.23;;;20.20;42.80;;;;;;5092954;28;20429;-68
2022/03/22 02:26:09;;;;;;;6.50;2.77;;;20.20;42.80;;;;;;5092596;28;20548;-68
2022/03/22 02:28:35;;;;;;;5.00;3.33;;;20.20;42.60;;;;;;5092146;28;21057;-69
2022/03/22 02:31:01;;;;;;;5.40;3.10;;;20.20;42.80;;;;;;5092371;28;20188;-68
2022/03/22 02:33:27;;;;;;;5.80;3.70;;;20.20;42.70;;;;;;5092621;28;20238;-68
2022/03/22 02:35:53;;;;;;;7.63;3.70;;;20.20;42.70;;;;;;5092691;28;20500;-68
2022/03/22 02:38:18;;;;;;;4.73;3.40;;;20.20;42.50;;;;;;5092674;28;20646;-68
2022/03/22 02:40:46;;;;;;;6.40;3.57;;;20.10;42.70;;;;;;5091975;28;20270;-69
2022/03/22 02:43:12;;;;;;;4.60;2.83;;;20.10;42.80;;;;;;5092583;28;20575;-68
2022/03/22 02:45:37;;;;;;;6.83;3.97;;;20.10;42.50;;;;;;5092333;28;20910;-68
2022/03/22 02:48:03;;;;;;;5.53;2.80;;;20.10;42.90;;;;;;5091962;28;20172;-68
2022/03/22 02:50:29;;;;;;;4.90;3.40;;;20.10;42.60;;;;;;5091740;28;20168;-68
2022/03/22 02:52:54;;;;;;;5.87;3.57;;;20.10;42.70;;;;;;5092261;28;20212;-68
2022/03/22 02:55:21;;;;;;;7.90;3.80;;;20.10;42.60;;;;;;5092210;28;20168;-68
2022/03/22 02:57:47;;;;;;;6.57;3.13;;;20.10;42.80;;;;;;5092135;28;20174;-68
2022/03/22 03:00:13;;;;;;;5.40;3.20;;;20.10;42.60;;;;;;5091492;28;20413;-68
2022/03/22 03:02:48;;;;;;;6.00;3.97;;;20.10;42.70;;;;;;5093162;28;20516;-68
2022/03/22 03:05:14;;;;;;;7.67;3.97;;;20.10;42.80;;;;;;5091880;28;20409;-68
2022/03/22 03:07:40;;;;;;;5.40;3.50;;;20.00;42.60;;;;;;5091813;28;20419;-68
2022/03/22 03:10:07;;;;;;;5.77;3.47;;;20.00;42.70;;;;;;5091442;28;20461;-68
2022/03/22 03:12:33;;;;;;;5.70;3.20;;;20.00;42.70;;;;;;5091679;28;20218;-69
2022/03/22 03:14:59;;;;;;;7.73;3.30;;;20.00;42.60;;;;;;5091787;28;20410;-68
2022/03/22 03:17:24;;;;;;;5.67;3.67;;;20.00;42.60;;;;;;5091952;28;20405;-68
2022/03/22 03:19:50;;;;;;;7.23;3.43;;;20.00;42.60;;;;;;5091243;28;20167;-68
2022/03/22 03:22:15;;;;;;;6.90;4.00;;;20.00;42.70;;;;;;5091659;28;20349;-68
2022/03/22 03:24:41;;;;;;;6.33;3.97;;;20.00;42.70;;;;;;5092035;28;20751;-69
2022/03/22 03:27:06;;;;;;;8.53;4.20;;;20.00;42.70;;;;;;5092026;28;20172;-69
2022/03/22 03:29:32;;;;;;;7.20;3.67;;;20.00;42.80;;;;;;5091327;28;20231;-69
2022/03/22 03:31:58;;;;;;;6.07;3.90;;;20.00;42.70;;;;;;5091821;28;20226;-70
2022/03/22 03:34:23;;;;;;;7.70;4.07;;;19.90;42.70;;;;;;5091678;28;20646;-70
2022/03/22 03:36:49;;;;;;;5.10;3.70;;;20.00;43.00;;;;;;5093159;28;20171;-69
2022/03/22 03:39:15;;;;;;;6.90;3.87;;;19.90;42.90;;;;;;5091246;28;20669;-69
2022/03/22 03:41:53;;;;;;;7.43;4.03;;;19.90;43.10;;;;;;5091555;28;20192;-70
2022/03/22 03:47:13;;;;;;;5.67;3.30;;;19.90;43.10;;;;;;5093525;28;20782;-70
2022/03/22 03:49:44;;;;;;;7.20;4.00;;;19.90;43.10;;;;;;5091136;28;20544;-70
2022/03/22 03:52:14;;;;;;;6.80;4.20;;;19.90;42.80;;;;;;5091593;28;20543;-69
2022/03/22 03:54:41;;;;;;;8.10;3.90;;;19.90;42.70;;;;;;5091672;28;20417;-69
2022/03/22 03:57:07;;;;;;;9.10;4.40;;;19.90;43.00;;;;;;5091772;28;20414;-68
2022/03/22 03:59:37;;;;;;;6.67;3.80;;;19.90;42.90;;;;;;5090979;28;20410;-69
2022/03/22 04:02:05;;;;;;;5.83;3.90;;;19.90;43.10;;;;;;5094722;28;20472;-69
2022/03/22 04:04:32;;;;;;;7.67;4.17;;;19.90;42.80;;;;;;5095603;28;20483;-69
2022/03/22 04:06:57;;;;;;;6.90;3.97;;;19.90;42.80;;;;;;5095475;28;20413;-69
2022/03/22 04:09:23;;;;;;;8.50;4.53;;;19.80;42.80;;;;;;5094775;28;20522;-69
2022/03/22 04:11:49;;;;;;;8.70;3.90;;;19.80;42.60;;;;;;5095451;28;20636;-69
2022/03/22 04:14:15;;;;;;;5.13;3.90;;;19.80;42.80;;;;;;5095409;28;20490;-68
2022/03/22 04:16:42;;;;;;;6.20;4.37;;;19.80;42.80;;;;;;5095209;28;20418;-69
2022/03/22 04:19:08;;;;;;;11.20;4.07;;;19.80;42.70;;;;;;5094909;28;20608;-69
2022/03/22 04:21:34;;;;;;;7.10;4.50;;;19.80;42.70;;;;;;5095160;28;20437;-69
2022/03/22 04:24:06;;;;;;;4.53;3.43;;;19.80;42.80;;;;;;5096358;28;20414;-69
2022/03/22 04:26:33;;;;;;;6.47;4.10;;;19.80;42.70;;;;;;5094887;28;20421;-69
2022/03/22 04:34:26;;;;;;;9.07;4.77;;;19.80;42.80;;;;;;5096260;28;20939;-69
2022/03/22 04:36:55;;;;;;;7.23;4.33;;;19.80;42.50;;;;;;5094876;28;20445;-68
2022/03/22 04:39:23;;;;;;;6.40;3.87;;;19.80;42.70;;;;;;5094163;28;20179;-68
2022/03/22 04:41:49;;;;;;;7.43;4.40;;;19.80;42.50;;;;;;5094537;28;20933;-68
2022/03/22 04:44:16;;;;;;;7.23;4.13;;;19.80;43.30;;;;;;5094520;28;20424;-69
2022/03/22 04:46:42;;;;;;;8.07;4.10;;;19.80;42.60;;;;;;5094444;28;20405;-69
2022/03/22 04:49:08;;;;;;;7.50;4.70;;;19.80;42.60;;;;;;5093598;28;20465;-69
2022/03/22 04:57:02;;;;;;;7.63;4.80;;;19.80;42.60;;;;;;5096138;28;20440;-68
2022/03/22 04:59:28;;;;;;;8.70;4.57;;;19.80;42.60;;;;;;5093832;28;20961;-69
2022/03/22 05:01:54;;;;;;;10.20;4.80;;;19.80;42.50;;;;;;5093543;28;20453;-69
2022/03/22 05:04:20;;;;;;;8.27;4.17;;;19.80;42.40;;;;;;5095533;28;20421;-68
2022/03/22 05:06:47;;;;;;;5.97;3.70;;;19.80;42.20;;;;;;5094129;28;20612;-68
2022/03/22 05:09:13;;;;;;;6.73;3.90;;;19.80;42.50;;;;;;5095015;28;20813;-69
2022/03/22 05:11:39;;;;;;;7.63;4.10;;;19.80;42.40;;;;;;5095309;28;20501;-70
2022/03/22 05:14:05;;;;;;;6.60;4.60;;;19.80;42.20;;;;;;5094323;28;20501;-70
2022/03/22 05:16:31;;;;;;;6.77;4.63;;;19.80;42.10;;;;;;5094068;28;20647;-70
2022/03/22 05:18:57;;;;;;;6.67;4.40;;;19.90;42.00;;;;;;5093650;28;20504;-71
2022/03/22 05:21:24;;;;;;;6.10;4.07;;;19.90;42.30;;;;;;5093826;28;20206;-71
2022/03/22 05:23:51;;;;;;;9.27;4.00;;;19.90;42.20;;;;;;5094134;28;20859;-71
2022/03/22 05:26:17;;;;;;;5.83;4.27;;;19.90;42.00;;;;;;5093692;28;20429;-69
2022/03/22 05:28:44;;;;;;;7.87;4.30;;;19.90;42.20;;;;;;5092737;28;20465;-69
2022/03/22 05:31:13;;;;;;;8.40;4.40;;;19.90;42.20;;;;;;5092950;28;20451;-69
2022/03/22 05:33:39;;;;;;;8.00;4.00;;;19.90;42.00;;;;;;5094393;28;20426;-69
2022/03/22 05:36:05;;;;;;;5.93;4.07;;;20.00;41.90;;;;;;5093986;28;20420;-69
2022/03/22 05:38:31;;;;;;;8.00;4.40;;;20.00;42.00;;;;;;5092972;28;20429;-69
2022/03/22 05:41:02;;;;;;;9.43;4.20;;;20.00;41.70;;;;;;5093485;28;20937;-69
2022/03/22 05:43:28;;;;;;;8.40;5.03;;;20.00;41.60;;;;;;5093352;28;20414;-70
2022/03/22 05:45:54;;;;;;;8.03;4.27;;;20.00;41.70;;;;;;5091230;28;20529;-69
2022/03/22 05:48:21;;;;;;;6.30;4.30;;;20.00;41.60;;;;;;5075125;28;20508;-70
2022/03/22 05:50:47;;;;;;;8.53;4.67;;;20.00;41.80;;;;;;5079678;28;20441;-70
2022/03/22 05:53:13;;;;;;;9.03;5.20;;;20.00;42.00;;;;;;5094533;28;20754;-69
2022/03/22 05:55:40;;;;;;;8.37;4.90;;;20.00;41.70;;;;;;5079367;28;20529;-69
2022/03/22 05:58:07;;;;;;;8.53;5.37;;;19.90;41.80;;;;;;5072712;28;20403;-69
2022/03/22 06:00:33;;;;;;;7.93;4.97;;;19.90;42.00;;;;;;5082615;28;20457;-69
2022/03/22 06:02:59;;;;;;;10.97;4.80;;;19.90;42.00;;;;;;5083854;28;20453;-69
2022/03/22 06:05:25;;;;;;;8.37;4.70;;;19.90;42.00;;;;;;5090889;28;20454;-69
2022/03/22 06:07:51;;;;;;;6.83;4.80;;;19.80;42.00;;;;;;5092737;28;20176;-69
2022/03/22 06:10:17;;;;;;;11.23;4.50;;;19.80;42.00;;;;;;5089961;28;20498;-69
2022/03/22 06:12:51;;;;;;;6.70;4.70;;;19.80;42.20;;;;;;5090002;28;20976;-69
2022/03/22 06:15:19;;;;;;;7.27;5.30;;;19.80;42.20;;;;;;5082843;28;20254;-70
2022/03/22 06:17:46;;;;;;;8.57;4.77;;;19.80;42.20;;;;;;5091945;28;20433;-69
2022/03/22 06:20:13;;;;;;;8.93;5.27;;;19.80;42.00;;;;;;5091220;28;20437;-68
2022/03/22 06:22:39;;;;;;;9.60;5.10;;;19.80;42.20;;;;;;5082113;28;20483;-69
2022/03/22 06:25:05;;;;;;;8.60;5.60;;;19.80;41.80;;;;;;5087473;28;20438;-69
2022/03/22 06:27:33;;;;;;;7.77;5.00;;;19.80;41.90;;;;;;5084188;28;20433;-69
2022/03/22 06:29:58;;;;;;;11.30;5.50;;;19.80;41.60;;;;;;5085815;28;20473;-69
2022/03/22 06:32:24;;;;;;;8.93;5.60;;;19.80;41.60;;;;;;5090927;28;20450;-69
2022/03/22 06:34:52;;;;;;;12.13;5.60;;;19.80;41.40;;;;;;5078708;28;20263;-70
2022/03/22 06:37:17;;;;;;;9.70;5.50;;;19.80;41.30;;;;;;5070823;28;20648;-70
2022/03/22 06:39:43;;;;;;;10.37;5.63;;;19.80;41.80;;;;;;5071414;28;20425;-70
2022/03/22 06:42:08;;;;;;;8.83;5.93;;;19.90;41.80;;;;;;5071775;28;20246;-69
2022/03/22 06:44:37;;;;;;;9.30;5.80;;;19.90;42.20;;;;;;5071978;28;20176;-70
2022/03/22 06:47:04;;;;;;;14.00;6.70;;;19.90;40.90;;;;;;5072115;28;20168;-70
2022/03/22 06:49:30;;;;;;;13.00;7.07;;;19.70;39.30;;;;;;5071597;28;20458;-70
2022/03/22 06:51:56;;;;;;;11.97;6.87;;;19.60;38.90;;;;;;5072031;28;20440;-70
2022/03/22 06:54:22;;;;;;;14.10;6.90;;;19.70;39.10;;;;;;5071871;28;20627;-70
2022/03/22 06:56:48;;;;;;;10.00;7.27;;;19.70;38.60;;;;;;5072001;28;20457;-70
2022/03/22 06:59:13;;;;;;;12.50;6.87;;;19.70;38.60;;;;;;5071475;28;20208;-69
2022/03/22 07:01:40;;;;;;;15.63;7.83;;;19.70;38.30;;;;;;5071581;28;20545;-72
2022/03/22 07:04:05;;;;;;;13.30;7.03;;;19.80;38.50;;;;;;5071977;28;20621;-70
2022/03/22 07:06:31;;;;;;;12.73;7.10;;;19.80;38.80;;;;;;5074597;28;20532;-72
2022/03/22 07:08:57;;;;;;;21.73;7.80;;;19.90;38.20;;;;;;5090158;28;20207;-71
2022/03/22 07:14:07;;;;;;;15.27;7.37;;;19.90;38.10;;;;;;5090379;28;20231;-69
2022/03/22 07:16:32;;;;;;;10.57;7.03;;;19.90;38.10;;;;;;5089255;28;20414;-70
2022/03/22 07:18:58;;;;;;;12.43;6.70;;;19.90;38.00;;;;;;5087198;28;20229;-70
2022/03/22 07:21:23;;;;;;;14.00;6.90;;;19.90;38.00;;;;;;5088934;28;20545;-71
2022/03/22 07:23:49;;;;;;;10.23;7.00;;;20.00;37.50;;;;;;5090353;28;20172;-71
2022/03/22 07:26:16;;;;;;;13.00;6.93;;;20.00;37.50;;;;;;5088770;28;20186;-70
2022/03/22 07:28:43;;;;;;;10.30;6.60;;;20.10;37.80;;;;;;5088874;28;20276;-70
2022/03/22 07:31:08;;;;;;;15.67;7.17;;;20.10;37.80;;;;;;5088423;28;20429;-71
2022/03/22 07:33:37;;;;;;;12.47;7.77;;;20.30;37.80;;;;;;5089313;28;20406;-71
2022/03/22 07:36:04;;;;;;;12.53;7.37;;;20.40;37.50;;;;;;5090158;28;20180;-70
2022/03/22 07:38:30;;;;;;;12.10;7.80;;;20.50;37.10;;;;;;5093044;28;20414;-70
2022/03/22 07:40:56;;;;;;;10.43;6.90;;;20.60;36.90;;;;;;5092821;28;20854;-70
2022/03/22 07:43:21;;;;;;;12.30;6.60;;;20.70;36.70;;;;;;5092934;28;20659;-71
2022/03/22 07:45:47;;;;;;;11.90;7.23;;;20.80;36.70;;;;;;5093383;28;20424;-69
2022/03/22 07:48:13;;;;;;;19.83;7.27;;;20.80;36.20;;;;;;5092230;28;20180;-68
2022/03/22 07:53:22;;;;;;;17.37;9.27;;;21.00;35.90;;;;;;5094396;28;20225;-70
2022/03/22 07:55:48;;;;;;;18.50;9.67;;;21.10;35.50;;;;;;5094526;28;20402;-69
2022/03/22 07:58:14;;;;;;;18.97;9.27;;;21.00;35.10;;;;;;5092337;28;20683;-70
2022/03/22 08:00:41;;;;;;;14.90;8.83;;;21.00;34.60;;;;;;5092093;28;20298;-69
2022/03/22 08:03:09;;;;;;;18.87;9.03;;;21.10;34.50;;;;;;5092271;28;20195;-71
2022/03/22 08:05:35;;;;;;;14.03;8.73;;;21.20;34.30;;;;;;5092854;28;20422;-70
2022/03/22 08:08:01;;;;;;;14.73;9.13;;;21.20;34.60;;;;;;5092381;28;20414;-69
2022/03/22 08:10:28;;;;;;;18.33;8.23;;;21.20;34.30;;;;;;5092097;28;20175;-67
2022/03/22 08:12:56;;;;;;;16.10;8.80;;;21.20;35.00;;;;;;5092382;28;20409;-68
2022/03/22 08:15:22;;;;;;;15.03;9.13;;;21.20;35.70;;;;;;5092160;28;20512;-69
2022/03/22 08:17:47;;;;;;;18.10;8.60;;;21.20;35.80;;;;;;5092601;28;20493;-68
2022/03/22 08:20:14;;;;;;;15.83;7.87;;;21.20;35.90;;;;;;5091459;28;20230;-68
2022/03/22 08:22:46;;;;;;;15.20;8.57;;;21.20;35.70;;;;;;5092514;28;20646;-69
2022/03/22 08:25:12;;;;;;;15.03;8.00;;;21.20;35.40;;;;;;5091500;28;20431;-68
2022/03/22 08:27:37;;;;;;;14.20;8.20;;;21.20;35.40;;;;;;5092480;28;20797;-69
2022/03/22 08:30:06;;;;;;;15.50;8.20;;;21.20;35.50;;;;;;5091314;28;20249;-68
2022/03/22 08:32:32;;;;;;;12.47;7.67;;;21.20;35.40;;;;;;5092369;28;20330;-68
2022/03/22 08:34:58;;;;;;;18.37;8.87;;;21.20;35.60;;;;;;5092144;28;20410;-69
2022/03/22 08:37:23;;;;;;;19.57;8.37;;;21.20;35.60;;;;;;5091540;28;20459;-68
2022/03/22 08:39:49;;;;;;;13.17;7.93;;;21.20;35.60;;;;;;5091920;28;20179;-68
2022/03/22 08:42:15;;;;;;;15.30;7.07;;;21.20;35.70;;;;;;5091540;28;20188;-69
2022/03/22 08:44:40;;;;;;;15.37;7.50;;;21.20;35.70;;;;;;5092074;28;20192;-69
2022/03/22 08:47:07;;;;;;;13.13;7.30;;;21.20;35.90;;;;;;5090753;28;20196;-68
2022/03/22 08:49:33;;;;;;;11.80;7.07;;;21.20;36.00;;;;;;5091374;28;20652;-67
2022/03/22 08:51:59;;;;;;;19.07;8.33;;;21.10;35.70;;;;;;5091581;28;20475;-67
2022/03/22 08:54:27;;;;;;;10.57;6.70;;;21.20;35.90;;;;;;5091627;28;20172;-67
2022/03/22 08:56:53;;;;;;;11.47;7.37;;;21.20;36.00;;;;;;5091988;28;20417;-68
2022/03/22 08:59:18;;;;;;;12.77;7.40;;;21.20;36.20;;;;;;5090750;28;20414;-68
2022/03/22 09:01:45;;;;;;;14.23;7.83;;;21.20;36.10;;;;;;5091369;28;20452;-67
2022/03/22 09:06:55;;;;;;;13.33;7.10;;;21.30;35.70;;;;;;5092978;28;20742;-67
2022/03/22 09:09:20;;;;;;;14.17;7.90;;;21.40;35.60;;;;;;5090847;28;20449;-68
2022/03/22 09:11:46;;;;;;;11.27;7.50;;;21.40;35.80;;;;;;5091605;28;20244;-67
2022/03/22 09:14:12;;;;;;;13.67;7.53;;;21.40;35.80;;;;;;5090604;28;20168;-68
2022/03/22 09:16:38;;;;;;;13.43;7.13;;;21.50;35.70;;;;;;5091691;28;20251;-69
2022/03/22 09:19:04;;;;;;;17.47;7.37;;;21.60;35.80;;;;;;5090378;28;20179;-68
2022/03/22 09:21:29;;;;;;;16.00;6.97;;;21.70;35.70;;;;;;5091306;28;20945;-67
2022/03/22 09:23:55;;;;;;;11.87;7.00;;;21.90;35.90;;;;;;5091051;28;20175;-68
2022/03/22 09:26:21;;;;;;;9.93;6.33;;;22.00;36.10;;;;;;5090774;28;20547;-68
2022/03/22 09:28:52;;;;;;;9.33;6.57;;;22.10;36.80;;;;;;5090963;28;20532;-71
2022/03/22 09:31:19;;;;;;;9.60;6.20;;;22.20;37.20;;;;;;5090896;28;20279;-68
2022/03/22 09:33:44;;;;;;;11.20;6.30;;;22.30;36.80;;;;;;5091284;28;20414;-68
2022/03/22 09:36:10;;;;;;;8.30;6.20;;;22.40;38.00;;;;;;5090627;28;20456;-67
2022/03/22 09:38:37;;;;;;;8.20;5.73;;;22.40;38.40;;;;;;5090798;28;20655;-68
2022/03/22 09:41:04;;;;;;;10.13;5.97;;;22.50;38.30;;;;;;5090544;28;20191;-67
2022/03/22 09:43:30;;;;;;;11.47;6.57;;;22.50;38.80;;;;;;5091241;28;20435;-67
2022/03/22 09:45:57;;;;;;;18.37;6.57;;;22.60;38.70;;;;;;5091115;28;20444;-68
2022/03/22 09:48:24;;;;;;;16.70;6.30;;;22.60;38.30;;;;;;5090802;28;20429;-68
2022/03/22 09:53:34;;;;;;;15.40;6.23;;;22.70;38.80;;;;;;5087778;28;20436;-67
2022/03/22 09:56:00;;;;;;;8.37;5.60;;;22.70;39.40;;;;;;5090434;28;20460;-67
2022/03/22 09:58:25;;;;;;;9.00;6.07;;;22.80;39.10;;;;;;5089008;28;20178;-67
2022/03/22 10:00:51;;;;;;;9.87;6.00;;;22.80;39.00;;;;;;5090732;28;20207;-67
2022/03/22 10:03:21;;;;;;;8.77;5.90;;;22.80;39.00;;;;;;5091755;28;20236;-67
2022/03/22 10:06:07;;;;;;;8.80;5.43;;;22.80;39.20;;;;;;5090105;28;20207;-67
2022/03/22 10:08:36;;;;;;;6.80;5.00;;;22.90;39.40;;;;;;5090370;28;20453;-67
2022/03/22 10:11:02;;;;;;;9.00;4.67;;;22.90;39.30;;;;;;5090055;28;20464;-67
2022/03/22 10:13:29;;;;;;;10.30;4.97;;;22.90;39.60;;;;;;5090700;28;20464;-68
2022/03/22 10:16:03;;;;;;;11.87;5.30;;;22.90;39.60;;;;;;5090182;28;20171;-67
2022/03/22 10:18:32;;;;;;;6.13;4.80;;;22.90;40.00;;;;;;5090374;28;20428;-67
2022/03/22 10:21:00;;;;;;;6.97;4.97;;;22.90;40.20;;;;;;5090167;28;20952;-67
2022/03/22 10:23:27;;;;;;;5.93;4.70;;;22.90;40.20;;;;;;5090022;28;20421;-67
2022/03/22 10:26:05;;;;;;;8.50;4.57;;;23.00;40.40;;;;;;5090571;28;20412;-67
2022/03/22 10:28:33;;;;;;;8.20;5.47;;;23.00;40.40;;;;;;5090036;28;20492;-67
2022/03/22 10:30:59;;;;;;;7.50;5.13;;;23.00;40.50;;;;;;5089890;28;20426;-67
2022/03/22 10:33:24;;;;;;;5.30;4.30;;;23.00;40.50;;;;;;5089223;28;21002;-66
2022/03/22 10:35:50;;;;;;;5.07;4.33;;;23.00;40.60;;;;;;5090788;28;20178;-67
2022/03/22 10:38:19;;;;;;;10.70;4.70;;;23.10;40.60;;;;;;5090441;28;20640;-67
2022/03/22 10:40:47;;;;;;;7.80;5.70;;;23.10;40.70;;;;;;5091767;28;20738;-69
2022/03/22 10:43:26;;;;;;;11.17;6.50;;;23.00;36.40;;;;;;5092317;28;20484;-69
2022/03/22 10:45:59;;;;;;;8.13;6.57;;;22.90;36.70;;;;;;5092417;28;20413;-68
2022/03/22 10:48:32;;;;;;;8.90;6.87;;;22.80;36.30;;;;;;5091926;28;20437;-68
2022/03/22 10:50:59;;;;;;;7.57;5.90;;;22.80;36.30;;;;;;5091741;28;20444;-68
2022/03/22 10:53:26;;;;;;;7.37;5.53;;;22.80;36.30;;;;;;5092161;28;20466;-69
2022/03/22 10:55:53;;;;;;;10.33;6.27;;;22.70;36.10;;;;;;5092120;28;20466;-69
2022/03/22 10:58:21;;;;;;;9.87;6.53;;;22.70;35.60;;;;;;5093429;28;20404;-70
2022/03/22 11:00:49;;;;;;;11.07;6.67;;;22.60;35.70;;;;;;5091867;28;20472;-69
2022/03/22 11:03:17;;;;;;;11.90;6.40;;;22.60;35.90;;;;;;5091711;28;20864;-69
2022/03/22 11:05:46;;;;;;;10.50;6.70;;;22.80;37.40;;;;;;5092011;28;20492;-71
2022/03/22 11:08:12;;;;;;;13.23;5.03;;;22.90;37.60;;;;;;5092041;28;20764;-71
2022/03/22 11:10:39;;;;;;;8.70;5.50;;;23.00;37.90;;;;;;5091360;28;20421;-69
2022/03/22 11:13:05;;;;;;;8.83;6.30;;;23.00;37.90;;;;;;5091690;28;20171;-68
2022/03/22 11:15:35;;;;;;;7.17;5.67;;;23.00;38.00;;;;;;5091322;28;20458;-70
2022/03/22 11:18:02;;;;;;;9.13;5.97;;;23.00;38.20;;;;;;5091621;28;20631;-70
2022/03/22 11:20:28;;;;;;;6.43;5.20;;;23.00;38.20;;;;;;5091019;28;20416;-69
2022/03/22 11:23:00;;;;;;;13.93;5.77;;;23.00;38.30;;;;;;5091892;28;20406;-71
2022/03/22 11:25:36;;;;;;;7.67;5.20;;;23.00;38.40;;;;;;5091554;28;20178;-68
2022/03/22 11:28:09;;;;;;;8.10;4.77;;;23.00;38.40;;;;;;5091342;28;20409;-70
2022/03/22 11:30:38;;;;;;;8.00;5.37;;;23.00;38.50;;;;;;5090966;28;20437;-69
2022/03/22 11:35:59;;;;;;;7.63;4.83;;;23.00;38.70;;;;;;5092978;28;20912;-70
2022/03/22 11:38:44;;;;;;;6.13;4.60;;;23.00;38.70;;;;;;5091279;28;20470;-69
2022/03/22 11:44:24;;;;;;;6.87;4.70;;;23.00;38.80;;;;;;5092624;28;21008;-68
2022/03/22 11:47:16;;;;;;;6.50;4.70;;;23.00;38.90;;;;;;5091324;28;20469;-69
2022/03/22 11:49:49;;;;;;;6.53;4.93;;;23.00;38.90;;;;;;5090806;28;21064;-70
2022/03/22 11:52:15;;;;;;;7.90;4.80;;;22.90;38.90;;;;;;5090815;28;20438;-69
2022/03/22 11:54:56;;;;;;;7.07;4.50;;;22.90;39.00;;;;;;5091230;28;20448;-68
2022/03/22 11:57:22;;;;;;;6.13;4.53;;;22.90;39.00;;;;;;5091278;28;20421;-68
2022/03/22 11:59:48;;;;;;;6.50;4.50;;;22.90;39.20;;;;;;5090863;28;20410;-67
2022/03/22 12:02:19;;;;;;;6.27;4.40;;;22.90;39.20;;;;;;5090999;28;20211;-67
2022/03/22 12:04:52;;;;;;;9.10;4.60;;;22.90;39.80;;;;;;5090872;28;20629;-66
2022/03/22 12:07:38;;;;;;;5.93;3.97;;;22.90;39.20;;;;;;5091085;28;20928;-69
2022/03/22 12:10:12;;;;;;;5.10;4.03;;;22.90;39.30;;;;;;5090744;28;20449;-68
2022/03/22 12:12:48;;;;;;;6.30;4.30;;;22.80;39.20;;;;;;5091081;28;20417;-69
2022/03/22 12:15:16;;;;;;;6.60;4.30;;;22.90;39.40;;;;;;5091075;28;20436;-69
2022/03/22 12:17:43;;;;;;;7.60;4.53;;;22.80;39.40;;;;;;5087166;28;20420;-69
2022/03/22 12:20:12;;;;;;;7.30;4.27;;;22.80;39.40;;;;;;5088370;28;20906;-68
2022/03/22 12:22:40;;;;;;;5.20;4.30;;;22.80;39.40;;;;;;5091103;28;20428;-70
2022/03/22 12:25:08;;;;;;;6.57;4.53;;;22.80;39.50;;;;;;5091603;28;20418;-68
2022/03/22 12:27:33;;;;;;;6.47;4.17;;;22.80;39.40;;;;;;5092323;28;20448;-70
2022/03/22 12:29:59;;;;;;;8.73;4.40;;;22.80;39.60;;;;;;5091285;28;20515;-70
2022/03/22 12:32:27;;;;;;;8.33;4.40;;;22.70;39.40;;;;;;5091916;28;20184;-69
2022/03/22 12:34:54;;;;;;;6.53;4.63;;;22.70;39.40;;;;;;5092447;28;20263;-68
2022/03/22 12:37:20;;;;;;;6.37;4.57;;;22.70;39.40;;;;;;5092005;28;20417;-69
2022/03/22 12:39:48;;;;;;;8.93;4.97;;;22.70;39.40;;;;;;5091717;28;20889;-69
2022/03/22 12:42:15;;;;;;;6.23;4.00;;;22.70;39.40;;;;;;5091016;28;20521;-70
2022/03/22 12:44:41;;;;;;;7.07;4.90;;;22.70;39.50;;;;;;5091894;28;20410;-70
2022/03/22 12:47:08;;;;;;;7.30;4.30;;;22.60;39.40;;;;;;5091302;28;20414;-70
2022/03/22 12:49:35;;;;;;;7.30;4.57;;;22.60;39.40;;;;;;5091315;28;20541;-70
2022/03/22 12:52:02;;;;;;;7.20;4.43;;;22.60;39.40;;;;;;5091454;28;20426;-71
2022/03/22 12:54:42;;;;;;;7.17;4.80;;;22.60;39.50;;;;;;5092801;28;20525;-69
2022/03/22 12:57:11;;;;;;;8.47;4.20;;;22.60;39.50;;;;;;5091187;28;20974;-68
2022/03/22 12:59:37;;;;;;;5.77;4.00;;;22.60;39.50;;;;;;5091282;28;20483;-69
2022/03/22 13:02:06;;;;;;;9.13;4.53;;;22.60;39.40;;;;;;5090802;28;20486;-68
2022/03/22 13:04:35;;;;;;;6.10;4.43;;;22.60;39.50;;;;;;5091526;28;20452;-70
2022/03/22 13:07:05;;;;;;;6.70;4.30;;;22.60;39.60;;;;;;5091180;28;20428;-68
2022/03/22 13:12:18;;;;;;;7.60;4.17;;;22.60;39.70;;;;;;5092509;28;20429;-69
2022/03/22 13:15:04;;;;;;;8.10;4.60;;;22.60;39.60;;;;;;5091353;28;20493;-71
2022/03/22 13:17:43;;;;;;;4.83;3.57;;;22.50;39.70;;;;;;5091016;28;20804;-70
2022/03/22 13:20:17;;;;;;;4.60;3.37;;;22.50;39.70;;;;;;5090554;28;20763;-68
2022/03/22 13:22:55;;;;;;;6.70;3.73;;;22.50;39.70;;;;;;5092514;28;20443;-71